createdAt,value
2023-01-08T00:00:24.790Z,9.60
2023-01-08T00:04:29.117Z,9.60
2023-01-08T00:08:33.053Z,9.60
2023-01-08T00:12:36.115Z,9.60
2023-01-08T00:16:39.198Z,9.70
2023-01-08T00:20:44.136Z,9.70
2023-01-08T00:24:47.181Z,9.70
2023-01-08T00:28:50.179Z,9.80
2023-01-08T00:32:53.142Z,9.80
2023-01-08T00:36:57.491Z,9.80
2023-01-08T00:41:00.487Z,9.90
2023-01-08T00:45:03.473Z,9.90
2023-01-08T00:49:06.440Z,9.90
2023-01-08T00:53:10.790Z,9.90
2023-01-08T00:57:13.827Z,9.90
2023-01-08T01:01:17.345Z,9.90
2023-01-08T01:05:20.817Z,9.90
2023-01-08T01:09:25.171Z,10.00
2023-01-08T01:13:28.191Z,10.00
2023-01-08T01:17:31.152Z,10.00
2023-01-08T01:21:34.601Z,10.00
2023-01-08T01:25:39.657Z,10.10
2023-01-08T01:29:42.731Z,10.00
2023-01-08T01:33:46.111Z,10.10
2023-01-08T01:37:49.068Z,10.10
2023-01-08T01:41:53.496Z,10.10
2023-01-08T01:45:56.528Z,10.10
2023-01-08T01:50:04.086Z,10.10
2023-01-08T01:54:10.427Z,10.10
2023-01-08T01:58:17.345Z,10.20
2023-01-08T02:02:22.804Z,10.20
2023-01-08T02:06:36.790Z,10.20
2023-01-08T02:10:49.469Z,10.20
2023-01-08T02:15:03.996Z,10.30
2023-01-08T02:19:21.142Z,10.30
2023-01-08T02:23:31.444Z,10.40
2023-01-08T02:27:39.022Z,10.40
2023-01-08T02:31:43.497Z,10.40
2023-01-08T02:35:52.867Z,10.50
2023-01-08T02:40:07.370Z,10.50
2023-01-08T02:44:18.754Z,10.60
2023-01-08T02:48:31.005Z,10.60
2023-01-08T02:52:37.750Z,10.70
2023-01-08T02:56:44.729Z,10.70
2023-01-08T03:00:49.949Z,10.70
2023-01-08T03:04:59.121Z,10.70
2023-01-08T03:09:02.656Z,10.80
2023-01-08T03:13:09.845Z,10.80
2023-01-08T03:17:20.677Z,10.80
2023-01-08T03:21:24.537Z,10.80
2023-01-08T03:25:30.932Z,10.80
2023-01-08T03:29:35.590Z,10.80
2023-01-08T03:33:40.300Z,10.80
2023-01-08T03:37:46.650Z,10.80
2023-01-08T03:41:50.568Z,10.80
2023-01-08T03:45:58.088Z,10.80
2023-01-08T03:50:06.612Z,10.90
2023-01-08T03:54:12.536Z,10.90
2023-01-08T03:58:15.497Z,10.90
2023-01-08T04:02:18.766Z,10.90
2023-01-08T04:06:23.248Z,10.90
2023-01-08T04:10:27.347Z,10.80
2023-01-08T04:14:30.324Z,10.80
2023-01-08T04:18:33.498Z,10.80
2023-01-08T04:22:37.806Z,10.80
2023-01-08T04:26:40.923Z,10.80
2023-01-08T04:30:43.949Z,10.80
2023-01-08T04:34:46.767Z,10.80
2023-01-08T04:38:50.923Z,10.80
2023-01-08T04:42:53.695Z,10.80
2023-01-08T04:46:56.764Z,10.80
2023-01-08T04:51:00.350Z,10.80
2023-01-08T04:55:05.145Z,10.80
2023-01-08T04:59:08.160Z,10.80
2023-01-08T05:03:11.280Z,10.80
2023-01-08T05:07:14.373Z,10.80
2023-01-08T05:11:18.699Z,10.80
2023-01-08T05:15:21.724Z,10.80
2023-01-08T05:19:24.748Z,10.80
2023-01-08T05:23:27.756Z,10.80
2023-01-08T05:27:32.087Z,10.80
2023-01-08T05:31:35.055Z,10.80
2023-01-08T05:35:40.488Z,10.80
2023-01-08T05:39:43.477Z,10.70
2023-01-08T05:43:47.802Z,10.70
2023-01-08T05:47:50.954Z,10.70
2023-01-08T05:51:54.005Z,10.60
2023-01-08T05:56:00.710Z,10.60
2023-01-08T06:00:06.366Z,10.60
2023-01-08T06:04:09.717Z,10.60
2023-01-08T06:08:12.816Z,10.50
2023-01-08T06:12:15.795Z,10.50
2023-01-08T06:16:21.088Z,10.50
2023-01-08T06:20:24.150Z,10.40
2023-01-08T06:24:27.111Z,10.40
2023-01-08T06:28:30.088Z,10.40
2023-01-08T06:32:34.201Z,10.40
2023-01-08T06:36:37.020Z,10.30
2023-01-08T06:40:40.089Z,10.30
2023-01-08T06:44:43.029Z,10.30
2023-01-08T06:48:47.313Z,10.30
2023-01-08T06:52:53.924Z,10.30
2023-01-08T06:56:56.791Z,10.30
2023-01-08T07:00:59.665Z,10.20
2023-01-08T07:05:03.874Z,10.20
2023-01-08T07:09:06.775Z,10.20
2023-01-08T07:13:09.691Z,10.20
2023-01-08T07:17:12.790Z,10.20
2023-01-08T07:21:17.363Z,10.20
2023-01-08T07:25:20.329Z,10.10
2023-01-08T07:29:23.355Z,10.10
2023-01-08T07:33:26.415Z,10.10
2023-01-08T07:37:30.830Z,10.00
2023-01-08T07:41:33.882Z,10.00
2023-01-08T07:45:36.947Z,10.00
2023-01-08T07:49:39.906Z,10.00
2023-01-08T07:53:44.366Z,10.00
2023-01-08T07:57:47.403Z,9.90
2023-01-08T08:01:50.509Z,10.00
2023-01-08T08:05:53.654Z,9.90
2023-01-08T08:09:57.982Z,9.90
2023-01-08T08:14:00.979Z,9.90
2023-01-08T08:18:04.276Z,9.90
2023-01-08T08:22:07.251Z,9.90
2023-01-08T08:26:11.580Z,9.90
2023-01-08T08:30:15.490Z,9.90
2023-01-08T08:34:20.377Z,9.90
2023-01-08T08:38:24.222Z,9.90
2023-01-08T08:42:28.685Z,10.00
2023-01-08T08:46:31.669Z,9.90
2023-01-08T08:50:34.721Z,10.00
2023-01-08T08:54:41.373Z,10.00
2023-01-08T08:58:46.281Z,10.00
2023-01-08T09:02:51.816Z,10.00
2023-01-08T09:06:54.851Z,10.00
2023-01-08T09:10:57.888Z,10.00
2023-01-08T09:15:02.265Z,10.10
2023-01-08T09:19:06.586Z,10.10
2023-01-08T09:23:10.443Z,10.10
2023-01-08T09:27:13.556Z,10.10
2023-01-08T09:31:17.952Z,10.20
2023-01-08T09:35:20.979Z,10.20
2023-01-08T09:39:24.027Z,10.30
2023-01-08T09:43:31.508Z,10.30
2023-01-08T09:47:40.037Z,10.30
2023-01-08T09:51:44.389Z,10.30
2023-01-08T09:56:08.595Z,10.30
2023-01-08T10:00:15.827Z,10.30
2023-01-08T10:04:22.908Z,10.20
2023-01-08T10:08:25.903Z,10.20
2023-01-08T10:12:30.929Z,10.10
2023-01-08T10:16:38.087Z,10.10
2023-01-08T10:20:42.457Z,10.00
2023-01-08T10:24:45.724Z,10.00
2023-01-08T10:28:48.672Z,10.00
2023-01-08T10:32:55.618Z,9.90
2023-01-08T10:37:00.033Z,9.90
2023-01-08T10:41:06.216Z,9.90
2023-01-08T10:45:18.448Z,10.00
2023-01-08T10:49:31.895Z,10.30
2023-01-08T10:53:36.248Z,11.10
2023-01-08T10:57:43.002Z,11.90
2023-01-08T11:01:48.687Z,13.30
2023-01-08T11:05:52.421Z,14.50
2023-01-08T11:09:56.752Z,15.10
2023-01-08T11:14:01.012Z,15.60
2023-01-08T11:18:07.979Z,15.70
2023-01-08T11:26:16.578Z,16.40
2023-01-08T13:46:08.222Z,14.50
2023-01-08T13:50:20.659Z,14.30
2023-01-08T13:54:31.227Z,14.00
2023-01-08T13:58:37.321Z,13.80
2023-01-08T14:02:50.403Z,13.60
2023-01-08T14:06:53.675Z,13.40
2023-01-08T14:10:56.826Z,13.30
2023-01-08T14:15:00.498Z,13.10
2023-01-08T14:19:06.467Z,12.90
2023-01-08T14:23:13.123Z,12.80
2023-01-08T14:27:24.594Z,12.70
2023-01-08T14:31:28.869Z,12.50
2023-01-08T14:35:35.924Z,12.40
2023-01-08T14:39:39.304Z,12.30
2023-01-08T14:43:45.337Z,12.20
2023-01-08T14:47:50.332Z,12.10
2023-01-08T14:51:55.436Z,12.10
2023-01-08T14:55:58.914Z,12.00
2023-01-08T15:00:03.872Z,12.00
2023-01-08T15:04:10.518Z,11.90
2023-01-08T15:08:26.855Z,11.80
2023-01-08T15:12:32.400Z,11.80
2023-01-08T15:16:40.357Z,11.70
2023-01-08T15:20:46.164Z,11.60
2023-01-08T15:29:02.858Z,11.40
2023-01-08T15:33:17.119Z,11.40
2023-01-08T15:41:42.822Z,11.20
2023-01-08T15:45:47.727Z,11.10
2023-01-08T15:49:50.923Z,10.90
2023-01-08T15:53:54.238Z,10.70
2023-01-08T15:57:58.638Z,10.60
2023-01-08T16:06:07.537Z,10.30
2023-01-08T16:10:11.400Z,10.10
2023-01-08T16:14:15.730Z,10.00
2023-01-08T16:18:18.875Z,10.00
2023-01-08T16:22:21.833Z,9.90
2023-01-08T16:26:24.766Z,9.80
2023-01-08T16:30:29.121Z,9.80
2023-01-08T16:34:32.089Z,9.70
2023-01-08T16:38:35.773Z,9.70
2023-01-08T16:42:38.923Z,9.70
2023-01-08T16:46:43.237Z,9.60
2023-01-08T16:50:46.831Z,9.60
2023-01-08T16:54:49.908Z,9.50
2023-01-08T16:58:52.967Z,9.40
2023-01-08T17:02:57.350Z,9.40
2023-01-08T17:07:00.301Z,9.30
2023-01-08T17:11:08.272Z,9.30
2023-01-08T17:15:12.116Z,9.30
2023-01-08T17:19:17.475Z,9.20
2023-01-08T17:23:20.660Z,9.20
2023-01-08T17:27:23.727Z,9.10
2023-01-08T17:31:26.919Z,9.10
2023-01-08T17:35:31.422Z,9.00
2023-01-08T17:39:36.623Z,8.90
2023-01-08T17:43:40.380Z,8.90
2023-01-08T17:47:43.642Z,8.90
2023-01-08T17:51:47.973Z,8.70
2023-01-08T17:55:53.553Z,8.70
2023-01-08T17:59:56.366Z,8.70
2023-01-08T18:03:59.387Z,8.60
2023-01-08T18:08:03.978Z,8.60
2023-01-08T18:12:07.388Z,8.60
2023-01-08T18:16:12.662Z,8.50
2023-01-08T18:20:16.153Z,8.50
2023-01-08T18:24:20.614Z,8.50
2023-01-08T18:28:23.908Z,8.50
2023-01-08T18:32:26.985Z,8.50
2023-01-08T18:36:29.788Z,8.50
2023-01-08T18:40:33.985Z,8.40
2023-01-08T18:44:36.848Z,8.40
2023-01-08T18:48:39.664Z,8.30
2023-01-08T18:52:42.632Z,8.30
2023-01-08T18:56:47.984Z,8.30
2023-01-08T19:00:50.796Z,8.30
2023-01-08T19:04:54.445Z,8.30
2023-01-08T19:08:58.601Z,8.40
2023-01-08T19:13:03.071Z,8.40
2023-01-08T19:17:06.845Z,8.40
2023-01-08T19:21:10.426Z,8.40
2023-01-08T19:25:14.954Z,8.40
2023-01-08T19:29:19.264Z,8.40
2023-01-08T19:33:22.603Z,8.40
2023-01-08T19:37:25.864Z,8.30
2023-01-08T19:41:46.066Z,8.30
2023-01-08T19:45:50.460Z,8.40
2023-01-08T19:49:53.303Z,8.30
2023-01-08T19:53:58.019Z,8.30
2023-01-08T19:58:00.845Z,8.30
2023-01-08T20:02:05.412Z,8.30
2023-01-08T20:06:09.226Z,8.20
2023-01-08T20:10:13.126Z,8.20
2023-01-08T20:14:15.999Z,8.20
2023-01-08T20:18:20.185Z,8.20
2023-01-08T20:22:23.247Z,8.20
2023-01-08T20:26:27.078Z,8.20
2023-01-08T20:30:29.925Z,8.20
2023-01-08T20:34:34.405Z,8.20
2023-01-08T20:38:37.686Z,8.20
2023-01-08T20:42:41.425Z,8.20
2023-01-08T20:46:44.686Z,8.20
2023-01-08T20:50:54.729Z,8.20
2023-01-08T20:54:57.727Z,8.20
2023-01-08T20:59:01.998Z,8.20
2023-01-08T21:03:04.926Z,8.20
2023-01-08T21:07:09.164Z,8.20
2023-01-08T21:11:12.724Z,8.10
2023-01-08T21:15:16.387Z,8.10
2023-01-08T21:19:19.315Z,8.00
2023-01-08T21:23:23.698Z,8.00
2023-01-08T21:27:27.966Z,8.00
2023-01-08T21:31:31.412Z,8.00
2023-01-08T21:35:34.513Z,8.00
2023-01-08T21:39:38.963Z,7.90
2023-01-08T21:43:59.416Z,7.90
2023-01-08T21:48:02.425Z,7.80
2023-01-08T21:52:23.985Z,7.90
2023-01-08T21:56:29.224Z,7.90
2023-01-08T22:00:32.534Z,7.80
2023-01-08T22:04:35.507Z,7.80
2023-01-08T22:08:38.526Z,7.80
2023-01-08T22:12:42.802Z,7.70
2023-01-08T22:16:46.014Z,7.70
2023-01-08T22:20:49.044Z,7.60
2023-01-08T22:24:52.584Z,7.60
2023-01-08T22:28:57.346Z,7.60
2023-01-08T22:33:00.173Z,7.60
2023-01-08T22:37:03.353Z,7.60
2023-01-08T22:41:11.447Z,7.60
2023-01-08T22:45:15.912Z,7.60
2023-01-08T22:49:19.199Z,7.60
2023-01-08T22:53:22.059Z,7.70
2023-01-08T22:57:25.265Z,7.70
2023-01-08T23:01:30.061Z,7.80
2023-01-08T23:05:33.503Z,7.80
2023-01-08T23:09:36.486Z,7.90
2023-01-08T23:13:40.228Z,7.90
2023-01-08T23:17:51.830Z,8.00
2023-01-08T23:21:55.634Z,8.00
2023-01-08T23:26:04.891Z,8.10
2023-01-08T23:30:08.656Z,8.10
2023-01-08T23:34:13.026Z,8.20
2023-01-08T23:38:16.191Z,8.20
2023-01-08T23:42:19.218Z,8.30
2023-01-08T23:46:22.208Z,8.30
2023-01-08T23:50:26.581Z,8.40
2023-01-08T23:54:29.621Z,8.40
2023-01-08T23:58:32.585Z,8.50
